MMGM/GYM METAR and TAF weather

Enter ICAO airport designator
Station Type Date Time Source
MMGM METAR 2020/01/28 20:41 UTC NOAA

MMGM 282041Z 02012KT 10SM SKC 27/07 A2993


Station Type Date Time Source
MMGM Decoded METAR 2020/01/28 20:41 UTC NOAA

Guaymas International Airport, Mexico (MMGM) 27-58N 110-56W
Jan 28, 2020 - 03:41 PM EST / 2020.01.28 2041 UTC
Wind: from the NNE (020 degrees) at 14 MPH (12 KT):0
Visibility: 10 mile(s):0
Sky conditions: clear
Temperature: 80 F (27 C)
Dew Point: 44 F (7 C)
Relative Humidity: 28%
Pressure (altimeter): 29.93 in. Hg (1013 hPa)
ob: MMGM 282041Z 02012KT 10SM SKC 27/07 A2993
cycle: 20

Station Type Date Time Source
MMGM TAF 2020/01/28 18:24 UTC NOAA

TAF COR MMGM 281916Z 2818/2918 33010KT P6SM SKC
TEMPO 2819/2823 33015KT
FM290400 33006KT P6SM SKC
FM291600 20006KT P6SM SKC

Example: see airport list